createdAt,value
2018-05-04T00:00:40.760Z,21
2018-05-04T00:01:30.526Z,21
2018-05-04T00:02:21.116Z,21
2018-05-04T00:03:10.941Z,21
2018-05-04T00:04:00.687Z,21
2018-05-04T00:04:51.323Z,21
2018-05-04T00:05:41.413Z,21
2018-05-04T00:06:31.463Z,21
2018-05-04T00:07:21.493Z,21
2018-05-04T00:08:11.263Z,21
2018-05-04T00:09:01.392Z,21
2018-05-04T00:09:51.400Z,21
2018-05-04T00:10:41.829Z,21
2018-05-04T00:11:31.542Z,21
2018-05-04T00:12:21.610Z,21
2018-05-04T00:13:11.938Z,21
2018-05-04T00:14:01.489Z,21
2018-05-04T00:14:51.499Z,21
2018-05-04T00:15:42.127Z,21
2018-05-04T00:16:32.212Z,21
2018-05-04T00:17:22.266Z,21
2018-05-04T00:18:11.796Z,21
2018-05-04T00:19:01.559Z,21
2018-05-04T00:19:51.599Z,21.1
2018-05-04T00:20:42.512Z,21
2018-05-04T00:21:32.299Z,21
2018-05-04T00:22:22.413Z,21
2018-05-04T00:23:12.723Z,21.1
2018-05-04T00:24:02.494Z,21
2018-05-04T00:24:51.809Z,21
2018-05-04T00:25:42.431Z,21
2018-05-04T00:26:32.183Z,21.1
2018-05-04T00:27:22.584Z,21
2018-05-04T00:28:11.733Z,21
2018-05-04T00:29:02.493Z,21
2018-05-04T00:29:52.919Z,21.1
2018-05-04T00:30:57.931Z,21
2018-05-04T00:31:33.413Z,21
2018-05-04T00:32:22.848Z,21.1
2018-05-04T00:33:13.476Z,21
2018-05-04T00:34:03.269Z,21
2018-05-04T00:34:53.041Z,21.1
2018-05-04T00:35:42.922Z,21.1
2018-05-04T00:36:33.428Z,21.1
2018-05-04T00:37:22.748Z,21.1
2018-05-04T00:38:13.315Z,21
2018-05-04T00:39:03.686Z,21
2018-05-04T00:39:53.251Z,21
2018-05-04T00:40:43.300Z,21
2018-05-04T00:41:33.081Z,21
2018-05-04T00:42:23.727Z,21
2018-05-04T00:43:13.996Z,21
2018-05-04T00:44:03.750Z,21
2018-05-04T00:44:54.120Z,21
2018-05-04T00:45:43.887Z,21
2018-05-04T00:46:34.225Z,21
2018-05-04T00:47:24.535Z,21.1
2018-05-04T00:48:14.634Z,21.1
2018-05-04T00:49:04.170Z,21.1
2018-05-04T00:49:53.968Z,21.1
2018-05-04T00:50:43.957Z,21.1
2018-05-04T00:51:34.643Z,21
2018-05-04T00:52:24.960Z,21.1
2018-05-04T00:53:15.058Z,21
2018-05-04T00:54:04.532Z,21
2018-05-04T00:54:54.317Z,21
2018-05-04T00:55:45.198Z,21.1
2018-05-04T00:56:34.981Z,21.1
2018-05-04T00:57:24.767Z,21.1
2018-05-04T00:58:15.384Z,21
2018-05-04T00:59:04.891Z,21.1
2018-05-04T00:59:55.540Z,21.1
2018-05-04T01:00:45.609Z,21.1
2018-05-04T01:01:35.377Z,21.1
2018-05-04T01:02:25.710Z,21.1
2018-05-04T01:03:15.497Z,21.1
2018-05-04T01:04:05.276Z,21.1
2018-05-04T01:04:55.931Z,21.1
2018-05-04T01:05:45.144Z,21.1
2018-05-04T01:06:36.012Z,21.1
2018-05-04T01:07:25.249Z,21.1
2018-05-04T01:08:15.924Z,21.1
2018-05-04T01:09:05.762Z,21.1
2018-05-04T01:09:56.020Z,21.1
2018-05-04T01:10:46.386Z,21
2018-05-04T01:11:35.598Z,21.1
2018-05-04T01:12:25.917Z,21.1
2018-05-04T01:13:16.556Z,21.1
2018-05-04T01:14:06.141Z,21.1
2018-05-04T01:14:55.809Z,21.1
2018-05-04T01:15:46.825Z,21.1
2018-05-04T01:16:35.386Z,21
2018-05-04T01:17:26.306Z,21.1
2018-05-04T01:18:16.661Z,21.1
2018-05-04T01:19:06.495Z,21.1
2018-05-04T01:19:57.095Z,21.1
2018-05-04T01:20:46.847Z,21.1
2018-05-04T01:21:37.216Z,21.1
2018-05-04T01:22:26.950Z,21.1
2018-05-04T01:23:17.301Z,21.1
2018-05-04T01:24:07.355Z,21.1
2018-05-04T01:24:57.449Z,21.1
2018-05-04T01:25:46.654Z,21.1
2018-05-04T01:26:37.556Z,21.1
2018-05-04T01:27:27.314Z,21.1
2018-05-04T01:28:17.689Z,21.1
2018-05-04T01:29:07.457Z,21.1
2018-05-04T01:29:57.300Z,21.1
2018-05-04T01:30:47.596Z,21.1
2018-05-04T01:31:37.668Z,21.1
2018-05-04T01:32:27.709Z,21.1
2018-05-04T01:33:17.848Z,21.1
2018-05-04T01:34:07.285Z,21.1
2018-05-04T01:34:57.903Z,21.1
2018-05-04T01:35:47.963Z,21.1
2018-05-04T01:36:38.074Z,21.1
2018-05-04T01:37:27.538Z,21.1
2018-05-04T01:38:18.497Z,21.1
2018-05-04T01:39:08.511Z,21.1
2018-05-04T01:39:58.277Z,21.1
2018-05-04T01:40:47.803Z,21.1
2018-05-04T01:41:38.698Z,21.1
2018-05-04T01:42:28.754Z,21.1
2018-05-04T01:43:18.273Z,21.1
2018-05-04T01:44:08.428Z,21.1
2018-05-04T01:44:58.121Z,21.1
2018-05-04T01:45:49.004Z,21.1
2018-05-04T01:46:38.817Z,21.1
2018-05-04T01:47:29.158Z,21.1
2018-05-04T01:48:18.666Z,21.1
2018-05-04T01:49:08.734Z,21.1
2018-05-04T01:49:59.079Z,21.1
2018-05-04T01:50:49.407Z,21.1
2018-05-04T01:51:38.884Z,21.1
2018-05-04T01:52:28.722Z,21.1
2018-05-04T01:53:17.897Z,21.1
2018-05-04T01:54:09.134Z,21.1
2018-05-04T01:54:59.469Z,21.1
2018-05-04T01:55:49.478Z,21.1
2018-05-04T01:56:38.543Z,21.1
2018-05-04T01:57:29.455Z,21.1
2018-05-04T01:58:19.548Z,21.1
2018-05-04T01:59:10.042Z,21.1
2018-05-04T02:00:00.098Z,21.1
2018-05-04T02:00:49.149Z,21.1
2018-05-04T02:01:39.752Z,21.1
2018-05-04T02:02:29.804Z,21.1
2018-05-04T02:03:19.894Z,21.1
2018-05-04T02:04:09.957Z,21.1
2018-05-04T02:05:00.300Z,21.1
2018-05-04T02:05:50.267Z,21.1
2018-05-04T02:06:40.062Z,21.1
2018-05-04T02:07:29.900Z,21.1
2018-05-04T02:08:19.403Z,21.1
2018-05-04T02:09:10.362Z,21.1
2018-05-04T02:10:00.039Z,21.1
2018-05-04T02:10:50.735Z,21.1
2018-05-04T02:11:39.944Z,21.1
2018-05-04T02:12:30.282Z,21.1
2018-05-04T02:13:20.907Z,21.1
2018-05-04T02:14:10.898Z,21.1
2018-05-04T02:15:00.750Z,21.1
2018-05-04T02:15:50.386Z,21.1
2018-05-04T02:16:40.348Z,21.1
2018-05-04T02:17:30.213Z,21.1
2018-05-04T02:18:20.750Z,21.1
2018-05-04T02:19:11.070Z,21.1
2018-05-04T02:20:00.865Z,21.1
2018-05-04T02:20:50.957Z,21.1
2018-05-04T02:21:41.734Z,21.1
2018-05-04T02:22:31.558Z,21.1
2018-05-04T02:23:21.664Z,21.1
2018-05-04T02:24:11.115Z,21.1
2018-05-04T02:25:02.064Z,21.1
2018-05-04T02:25:51.269Z,21.1
2018-05-04T02:26:41.865Z,21.1
2018-05-04T02:27:32.225Z,21.1
2018-05-04T02:28:21.739Z,21.1
2018-05-04T02:29:12.159Z,21.1
2018-05-04T02:30:02.447Z,21.1
2018-05-04T02:30:52.271Z,21.1
2018-05-04T02:31:42.328Z,21.1
2018-05-04T02:32:32.340Z,21.1
2018-05-04T02:33:22.155Z,21.1
2018-05-04T02:34:12.153Z,21.1
2018-05-04T02:35:02.830Z,21.1
2018-05-04T02:35:52.608Z,21.1
2018-05-04T02:36:42.630Z,21.1
2018-05-04T02:37:32.749Z,21.1
2018-05-04T02:38:22.556Z,21.1
2018-05-04T02:39:12.862Z,21.1
2018-05-04T02:40:03.188Z,21.1
2018-05-04T02:40:53.028Z,21.1
2018-05-04T02:41:42.784Z,21.1
2018-05-04T02:42:33.090Z,21.1
2018-05-04T02:43:22.859Z,21.1
2018-05-04T02:44:13.205Z,21.1
2018-05-04T02:45:03.039Z,21.1
2018-05-04T02:45:53.365Z,21.1
2018-05-04T02:46:43.723Z,21.1
2018-05-04T02:47:33.755Z,21.1
2018-05-04T02:48:23.513Z,21.1
2018-05-04T02:49:13.843Z,21.1
2018-05-04T02:50:03.399Z,21.1
2018-05-04T02:50:53.778Z,21.1
2018-05-04T02:51:43.910Z,21.1
2018-05-04T02:52:33.586Z,21.1
2018-05-04T02:54:14.247Z,21.1
2018-05-04T02:55:04.351Z,21.1
2018-05-04T02:55:54.114Z,21.1
2018-05-04T02:56:44.456Z,21.1
2018-05-04T02:57:33.952Z,21.1
2018-05-04T02:58:24.079Z,21.1
2018-05-04T02:59:14.430Z,21.1
2018-05-04T03:00:04.154Z,21.1
2018-05-04T03:01:44.838Z,21.1
2018-05-04T03:02:34.615Z,21.1
2018-05-04T03:03:25.000Z,21.1
2018-05-04T03:04:14.480Z,21.1
2018-05-04T03:05:05.125Z,21.1
2018-05-04T03:05:55.160Z,21.1
2018-05-04T03:06:44.965Z,21.1
2018-05-04T03:07:35.275Z,21.1
2018-05-04T03:08:25.355Z,21.1
2018-05-04T03:09:15.444Z,21.1
2018-05-04T03:10:55.293Z,21.1
2018-05-04T03:11:45.629Z,21.1
2018-05-04T03:12:35.120Z,21.1
2018-05-04T03:13:25.213Z,21.1
2018-05-04T03:14:15.292Z,21.1
2018-05-04T03:19:16.149Z,21.1
2018-05-04T03:20:55.465Z,21.1
2018-05-04T03:21:46.097Z,21.1
2018-05-04T03:22:36.442Z,21.1
2018-05-04T03:25:56.402Z,21.1
2018-05-04T03:26:46.510Z,21.1
2018-05-04T03:28:25.992Z,21.1
2018-05-04T03:33:26.645Z,21.1
2018-05-04T03:34:16.437Z,21.1
2018-05-04T04:24:20.864Z,21.2
2018-05-04T04:27:40.368Z,21.2
2018-05-04T04:31:51.296Z,21.2
2018-05-04T04:32:41.332Z,21.2
2018-05-04T04:35:10.414Z,21.2
2018-05-04T04:36:01.066Z,21.2
2018-05-04T04:36:51.309Z,21.2
2018-05-04T04:37:40.573Z,21.2
2018-05-04T04:38:31.529Z,21.2
2018-05-04T04:39:21.741Z,21.2
2018-05-04T04:40:12.079Z,21.2
2018-05-04T04:41:01.816Z,21.2
2018-05-04T04:41:52.476Z,21.2
2018-05-04T04:42:42.282Z,21.2
2018-05-04T04:43:31.855Z,21.2
2018-05-04T04:45:12.219Z,21.2
2018-05-04T04:46:01.679Z,21.2
2018-05-04T04:46:52.387Z,21.2
2018-05-04T04:47:41.976Z,21.2
2018-05-04T04:48:33.072Z,21.2
2018-05-04T04:49:22.739Z,21.2
2018-05-04T04:50:12.812Z,21.2
2018-05-04T04:51:02.866Z,21.2
2018-05-04T04:51:53.250Z,21.2
2018-05-04T04:52:42.807Z,21.2
2018-05-04T04:53:33.051Z,21.2
2018-05-04T04:54:23.431Z,21.2
2018-05-04T04:55:12.355Z,21.2
2018-05-04T04:56:03.294Z,21.2
2018-05-04T04:56:52.555Z,21.2
2018-05-04T04:57:42.562Z,21.2
2018-05-04T04:58:33.228Z,21.2
2018-05-04T04:59:23.601Z,21.2
2018-05-04T05:00:13.865Z,21.2
2018-05-04T05:01:03.657Z,21.2
2018-05-04T05:01:54.200Z,21.3
2018-05-04T05:02:44.059Z,21.2
2018-05-04T05:03:33.842Z,21.3
2018-05-04T05:04:23.613Z,21.3
2018-05-04T05:05:13.965Z,21.3
2018-05-04T05:06:04.152Z,21.3
2018-05-04T05:06:53.787Z,21.3
2018-05-04T05:07:44.114Z,21.3
2018-05-04T05:08:34.490Z,21.3
2018-05-04T05:09:24.253Z,21.3
2018-05-04T05:10:13.793Z,21.3
2018-05-04T05:11:04.491Z,21.3
2018-05-04T05:11:54.192Z,21.3
2018-05-04T05:12:44.876Z,21.3
2018-05-04T05:13:35.889Z,21.3
2018-05-04T05:14:24.932Z,21.3
2018-05-04T05:15:14.151Z,21.3
2018-05-04T05:16:04.783Z,21.3
2018-05-04T05:16:54.840Z,21.3
2018-05-04T05:17:44.877Z,21.3
2018-05-04T05:18:34.976Z,21.2
2018-05-04T05:19:25.017Z,21.2
2018-05-04T05:20:14.833Z,21.2
2018-05-04T05:21:05.537Z,21.2
2018-05-04T05:21:56.001Z,21.2
2018-05-04T05:23:35.575Z,21.2
2018-05-04T05:30:16.194Z,21.1
2018-05-04T05:48:37.613Z,21.1
2018-05-04T05:49:27.396Z,21.1
2018-05-04T05:50:17.425Z,21.1
2018-05-04T05:51:06.632Z,21.1
2018-05-04T05:51:58.107Z,21
2018-05-04T05:52:47.434Z,21.1
2018-05-04T05:53:37.038Z,21.1
2018-05-04T05:54:27.762Z,21
2018-05-04T05:55:17.821Z,21
2018-05-04T05:56:07.578Z,21
2018-05-04T05:56:57.653Z,21
2018-05-04T05:57:48.219Z,21
2018-05-04T05:58:37.766Z,21
2018-05-04T05:59:28.128Z,21
2018-05-04T06:00:18.175Z,21
2018-05-04T06:01:08.250Z,21
2018-05-04T06:01:58.615Z,21
2018-05-04T06:02:48.095Z,21
2018-05-04T06:03:38.212Z,20.7
2018-05-04T06:05:26.647Z,20.7
2018-05-04T06:05:36.760Z,23.7
2018-05-04T06:06:28.381Z,23.9
2018-05-04T06:07:17.403Z,24.3
2018-05-04T06:08:08.472Z,23.6
2018-05-04T06:08:58.235Z,22.9
2018-05-04T06:09:48.120Z,22.6
2018-05-04T06:10:38.689Z,22.7
2018-05-04T06:11:28.295Z,22.9
2018-05-04T06:12:18.297Z,23.1
2018-05-04T06:13:08.320Z,23.2
2018-05-04T06:13:58.913Z,23.1
2018-05-04T06:14:49.020Z,23
2018-05-04T06:15:38.515Z,23.1
2018-05-04T06:16:29.124Z,23.1
2018-05-04T06:17:18.922Z,23.1
2018-05-04T06:18:09.021Z,23.2
2018-05-04T06:18:58.838Z,23.3
2018-05-04T06:19:49.133Z,23.3
2018-05-04T06:20:39.443Z,23.3
2018-05-04T06:21:29.249Z,23.3
2018-05-04T06:22:19.323Z,23.4
2018-05-04T06:23:09.625Z,23.4
2018-05-04T06:23:59.713Z,23.5
2018-05-04T06:24:48.724Z,23.5
2018-05-04T06:25:38.737Z,23.6
2018-05-04T06:26:28.471Z,23.6
2018-05-04T06:27:19.707Z,23.6
2018-05-04T06:28:09.840Z,23.7
2018-05-04T06:29:00.117Z,23.8
2018-05-04T06:29:49.039Z,23.9
2018-05-04T06:30:40.207Z,23.9
2018-05-04T06:31:30.024Z,23.9
2018-05-04T06:32:20.068Z,24
2018-05-04T06:33:10.139Z,24.1
2018-05-04T06:34:00.651Z,24.1
2018-05-04T06:34:50.524Z,24.2
2018-05-04T06:35:40.316Z,24.3
2018-05-04T06:36:30.424Z,24.3
2018-05-04T06:37:20.546Z,24.4
2018-05-04T06:38:10.847Z,24.4
2018-05-04T06:39:00.306Z,24.6
2018-05-04T06:39:50.503Z,24.6
2018-05-04T06:40:40.564Z,24.8
2018-05-04T06:41:30.558Z,24.9
2018-05-04T06:42:20.664Z,25.1
2018-05-04T06:43:10.671Z,25.2
2018-05-04T06:44:00.535Z,25.3
2018-05-04T06:44:49.657Z,25.4
2018-05-04T06:45:41.055Z,25.4
2018-05-04T06:46:30.664Z,25.5
2018-05-04T06:47:20.448Z,25.6
2018-05-04T06:48:11.607Z,25.7
2018-05-04T06:49:01.349Z,25.9
2018-05-04T06:49:51.398Z,26.3
2018-05-04T06:50:41.737Z,26.4
2018-05-04T06:51:31.609Z,26.6
2018-05-04T06:52:21.685Z,26.6
2018-05-04T06:53:11.865Z,26.7
2018-05-04T06:54:02.052Z,26.8
2018-05-04T06:54:51.241Z,26.9
2018-05-04T06:55:42.279Z,27.1
2018-05-04T06:56:31.969Z,27.1
2018-05-04T06:57:21.970Z,27.1
2018-05-04T06:58:11.466Z,27.1
2018-05-04T06:59:01.863Z,27.1
2018-05-04T06:59:51.872Z,27.2
2018-05-04T07:00:42.545Z,27.3
2018-05-04T07:01:32.271Z,27.3
2018-05-04T07:02:22.114Z,27.3
2018-05-04T07:03:12.136Z,27.4
2018-05-04T07:04:02.802Z,27.4
2018-05-04T07:04:52.021Z,27.4
2018-05-04T07:05:42.857Z,27.6
2018-05-04T07:06:32.681Z,27.6
2018-05-04T07:07:22.527Z,27.6
2018-05-04T07:08:13.073Z,27.8
2018-05-04T07:09:53.209Z,27.9
2018-05-04T07:10:43.086Z,27.9
2018-05-04T07:11:33.046Z,28
2018-05-04T07:12:23.428Z,28
2018-05-04T07:13:13.264Z,28.1
2018-05-04T07:14:02.971Z,28.1
2018-05-04T07:14:53.355Z,28.1
2018-05-04T07:15:43.176Z,28.1
2018-05-04T07:16:33.805Z,28.2
2018-05-04T07:17:23.856Z,28.3
2018-05-04T07:18:13.570Z,28.3
2018-05-04T07:19:03.623Z,28.4
2018-05-04T07:19:53.969Z,28.4
2018-05-04T07:20:44.057Z,28.5
2018-05-04T07:21:34.089Z,28.6
2018-05-04T07:22:23.344Z,28.8
2018-05-04T07:23:13.716Z,28.9
2018-05-04T07:24:04.038Z,28.9
2018-05-04T07:24:53.787Z,29
2018-05-04T07:25:44.149Z,29.1
2018-05-04T07:26:33.504Z,29.1
2018-05-04T07:27:23.734Z,29.3
2018-05-04T07:28:13.802Z,29.4
2018-05-04T07:29:04.689Z,29.5
2018-05-04T07:29:54.866Z,29.7
2018-05-04T07:30:44.919Z,29.9
2018-05-04T07:31:34.880Z,30.3
2018-05-04T07:32:24.960Z,30.6
2018-05-04T07:33:14.489Z,30.8
2018-05-04T07:34:04.545Z,30.8
2018-05-04T07:34:55.211Z,30.8
2018-05-04T07:35:44.987Z,30.8
2018-05-04T07:36:34.217Z,30.9
2018-05-04T07:37:24.797Z,31
2018-05-04T07:38:15.396Z,31.2
2018-05-04T07:39:04.467Z,31.3
2018-05-04T07:39:55.369Z,31.3
2018-05-04T07:40:45.578Z,31.3
2018-05-04T07:41:35.658Z,31.4
2018-05-04T07:42:25.177Z,31.4
2018-05-04T07:43:16.847Z,31.4
2018-05-04T07:44:05.302Z,31.5
2018-05-04T07:44:55.092Z,31.5
2018-05-04T07:45:45.445Z,31.6
2018-05-04T07:46:36.065Z,31.6
2018-05-04T07:47:25.836Z,31.6
2018-05-04T07:48:15.918Z,31.6
2018-05-04T07:49:06.069Z,31.7
2018-05-04T07:49:56.315Z,31.8
2018-05-04T07:50:46.388Z,31.8
2018-05-04T07:51:36.180Z,31.9
2018-05-04T07:52:26.467Z,32
2018-05-04T07:53:16.589Z,32.1
2018-05-04T07:54:06.134Z,32.2
2018-05-04T07:54:55.866Z,32.3
2018-05-04T07:55:46.503Z,32.3
2018-05-04T07:56:36.272Z,32.4
2018-05-04T07:57:25.785Z,32.4
2018-05-04T07:58:16.379Z,32.5
2018-05-04T07:59:07.012Z,32.6
2018-05-04T07:59:57.083Z,32.7
2018-05-04T08:00:47.128Z,32.8
2018-05-04T08:01:36.920Z,32.9
2018-05-04T08:02:27.263Z,32.9
2018-05-04T08:03:17.311Z,33
2018-05-04T08:04:07.477Z,33.1
2018-05-04T08:04:57.452Z,33.1
2018-05-04T08:05:46.402Z,33.2
2018-05-04T08:06:37.416Z,33.3
2018-05-04T08:07:27.397Z,33.3
2018-05-04T08:08:17.418Z,33.4
2018-05-04T08:09:07.527Z,33.4
2018-05-04T08:09:57.330Z,33.4
2018-05-04T08:10:47.366Z,33.5
2018-05-04T08:11:37.788Z,33.6
2018-05-04T08:12:27.187Z,33.6
2018-05-04T08:13:16.976Z,33.7
2018-05-04T08:14:07.923Z,33.7
2018-05-04T08:14:57.681Z,33.8
2018-05-04T08:15:47.281Z,33.9
2018-05-04T08:16:38.136Z,33.9
2018-05-04T08:17:27.605Z,34.1
2018-05-04T08:18:18.058Z,34.1
2018-05-04T08:19:07.280Z,34.3
2018-05-04T08:19:57.881Z,34.3
2018-05-04T08:20:48.720Z,34.4
2018-05-04T08:21:37.625Z,34.5
2018-05-04T08:22:27.982Z,34.6
2018-05-04T08:23:17.755Z,34.8
2018-05-04T08:24:08.949Z,34.9
2018-05-04T08:24:58.741Z,34.9
2018-05-04T08:25:48.813Z,35.1
2018-05-04T08:26:39.171Z,35.3
2018-05-04T08:27:29.737Z,35.3
2018-05-04T08:28:17.657Z,35.3
2018-05-04T08:29:08.597Z,35.4
2018-05-04T08:29:58.084Z,35.4
2018-05-04T08:30:48.737Z,35.4
2018-05-04T08:31:39.134Z,35.6
2018-05-04T08:32:29.048Z,35.8
2018-05-04T08:33:19.196Z,36.1
2018-05-04T08:34:08.329Z,36.5
2018-05-04T08:34:59.559Z,36.8
2018-05-04T08:35:49.651Z,37.1
2018-05-04T08:36:38.837Z,37.4
2018-05-04T08:37:29.224Z,37.5
2018-05-04T08:38:18.931Z,37.4
2018-05-04T08:39:08.857Z,37.4
2018-05-04T08:39:59.164Z,37.6
2018-05-04T08:40:51.279Z,37.9
2018-05-04T08:41:40.413Z,38.1
2018-05-04T08:42:30.344Z,38.3
2018-05-04T08:43:21.150Z,38.5
2018-05-04T08:44:10.491Z,38.6
2018-05-04T08:45:00.008Z,38.6
2018-05-04T08:45:50.339Z,38.6
2018-05-04T08:46:40.169Z,38.5
2018-05-04T08:47:30.480Z,38.5
2018-05-04T08:48:21.976Z,38.4
2018-05-04T08:49:10.400Z,38.4
2018-05-04T08:50:00.673Z,38.4
2018-05-04T08:50:51.108Z,38.4
2018-05-04T08:51:41.075Z,38.4
2018-05-04T08:52:30.583Z,38.4
2018-05-04T08:53:20.926Z,38.3
2018-05-04T08:54:10.995Z,38.3
2018-05-04T08:55:01.066Z,38.3
2018-05-04T08:55:51.129Z,38.3
2018-05-04T08:56:40.926Z,38.3
2018-05-04T08:57:31.786Z,38.3
2018-05-04T08:58:21.602Z,38.3
2018-05-04T08:59:11.403Z,38.3
2018-05-04T09:00:01.749Z,38.3
2018-05-04T09:00:51.804Z,38.3
2018-05-04T09:01:41.831Z,38.3
2018-05-04T09:02:31.905Z,38.3
2018-05-04T09:03:21.698Z,38.3
2018-05-04T09:04:12.088Z,38.4
2018-05-04T09:05:02.129Z,38.4
2018-05-04T09:05:51.351Z,38.4
2018-05-04T09:06:42.270Z,38.5
2018-05-04T09:07:31.844Z,38.6
2018-05-04T09:08:22.405Z,38.6
2018-05-04T09:09:12.189Z,38.8
2018-05-04T09:10:02.563Z,38.9
2018-05-04T09:10:52.289Z,39
2018-05-04T09:11:42.623Z,39.2
2018-05-04T09:12:32.452Z,39.3
2018-05-04T09:13:22.518Z,39.5
2018-05-04T09:14:11.516Z,39.7
2018-05-04T09:15:02.910Z,39.9
2018-05-04T09:15:52.991Z,40.1
2018-05-04T09:16:43.061Z,40.3
2018-05-04T09:17:32.842Z,40.5
2018-05-04T09:18:22.709Z,40.6
2018-05-04T09:19:12.952Z,40.8
2018-05-04T09:20:03.020Z,41
2018-05-04T09:20:53.094Z,41.3
2018-05-04T09:21:42.859Z,41.5
2018-05-04T09:22:33.240Z,41.7
2018-05-04T09:23:22.698Z,41.9
2018-05-04T09:24:13.346Z,42.1
2018-05-04T09:25:03.133Z,42.4
2018-05-04T09:25:53.752Z,42.6
2018-05-04T09:26:43.242Z,42.8
2018-05-04T09:27:33.036Z,43
2018-05-04T09:28:23.395Z,43.3
2018-05-04T09:29:13.498Z,43.6
2018-05-04T09:30:03.553Z,43.7
2018-05-04T09:30:54.423Z,43.9
2018-05-04T09:31:43.923Z,43.9
2018-05-04T09:32:33.993Z,44.1
2018-05-04T09:33:24.342Z,44.3
2018-05-04T09:34:14.141Z,44.4
2018-05-04T09:35:03.952Z,44.6
2018-05-04T09:35:53.513Z,44.8
2018-05-04T09:36:44.057Z,45
2018-05-04T09:37:34.392Z,45.2
2018-05-04T09:38:24.537Z,45.4
2018-05-04T09:39:14.527Z,45.6
2018-05-04T09:40:04.887Z,45.9
2018-05-04T09:40:54.355Z,46.1
2018-05-04T09:41:44.037Z,46.3
2018-05-04T09:42:34.576Z,46.4
2018-05-04T09:43:25.656Z,46.5
2018-05-04T09:44:15.217Z,46.6
2018-05-04T09:45:05.328Z,46.8
2018-05-04T09:45:55.022Z,47
2018-05-04T09:46:44.875Z,47.1
2018-05-04T09:47:35.503Z,47.3
2018-05-04T09:48:25.501Z,47.3
2018-05-04T09:49:15.809Z,47.3
2018-05-04T09:50:05.675Z,47.4
2018-05-04T09:50:55.157Z,47.4
2018-05-04T09:51:45.747Z,47.5
2018-05-04T09:52:35.579Z,47.6
2018-05-04T09:53:25.141Z,47.6
2018-05-04T09:54:15.455Z,47.6
2018-05-04T09:55:05.480Z,47.6
2018-05-04T09:55:56.451Z,47.6
2018-05-04T09:56:45.621Z,47.7
2018-05-04T09:57:35.947Z,47.8
2018-05-04T09:58:25.439Z,47.9
2018-05-04T09:59:15.541Z,48.1
2018-05-04T10:00:06.443Z,48.2
2018-05-04T10:00:56.551Z,48.3
2018-05-04T10:01:46.641Z,48.4
2018-05-04T10:02:36.067Z,48.5
2018-05-04T10:03:26.541Z,48.5
2018-05-04T10:04:16.748Z,48.6
2018-05-04T10:05:06.564Z,48.6
2018-05-04T10:05:56.628Z,48.7
2018-05-04T10:06:46.717Z,48.8
2018-05-04T10:07:37.042Z,48.8
2018-05-04T10:08:26.541Z,48.8
2018-05-04T10:09:17.506Z,48.9
2018-05-04T10:10:06.835Z,48.9
2018-05-04T10:10:57.044Z,48.9
2018-05-04T10:11:46.799Z,48.9
2018-05-04T10:12:37.151Z,49
2018-05-04T10:13:27.527Z,49.1
2018-05-04T10:14:17.546Z,49.2
2018-05-04T10:15:06.591Z,49.2
2018-05-04T10:15:57.349Z,49.3
2018-05-04T10:16:47.469Z,49.5
2018-05-04T10:17:36.997Z,49.6
2018-05-04T10:18:27.051Z,49.8
2018-05-04T10:19:17.386Z,50
2018-05-04T10:20:06.909Z,50.2
2018-05-04T10:20:58.102Z,50.4
2018-05-04T10:21:47.587Z,50.6
2018-05-04T10:22:37.658Z,50.8
2018-05-04T10:23:27.231Z,51.1
2018-05-04T10:24:17.331Z,51.3
2018-05-04T10:25:08.408Z,51.4
2018-05-04T10:25:58.281Z,51.6
2018-05-04T10:26:48.094Z,51.7
2018-05-04T10:27:38.055Z,51.9
2018-05-04T10:28:28.394Z,52.1
2018-05-04T10:29:18.540Z,52.2
2018-05-04T10:30:08.549Z,52.3
2018-05-04T10:30:58.987Z,52.5
2018-05-04T10:31:48.903Z,52.6
2018-05-04T10:32:37.674Z,52.7
2018-05-04T10:33:28.545Z,52.8
2018-05-04T10:34:18.842Z,52.9
2018-05-04T10:35:08.475Z,53
2018-05-04T10:35:59.356Z,53.1
2018-05-04T10:36:49.019Z,53.2
2018-05-04T10:37:39.076Z,53.3
2018-05-04T10:38:30.416Z,53.3
2018-05-04T10:39:19.230Z,53.5
2018-05-04T10:40:09.297Z,53.7
2018-05-04T10:40:59.394Z,53.8
2018-05-04T10:41:49.697Z,54
2018-05-04T10:42:39.508Z,54.2
2018-05-04T10:43:29.623Z,54.3
2018-05-04T10:44:19.078Z,54.4
2018-05-04T10:45:10.258Z,54.6
2018-05-04T10:46:00.101Z,54.8
2018-05-04T10:46:50.123Z,54.9
2018-05-04T10:47:40.164Z,54.9
2018-05-04T10:48:29.694Z,54.8
2018-05-04T10:49:19.562Z,54.4
2018-05-04T10:50:09.890Z,54.2
2018-05-04T10:50:59.421Z,54
2018-05-04T10:51:49.936Z,53.9
2018-05-04T10:52:40.564Z,53.8
2018-05-04T10:53:30.364Z,53.7
2018-05-04T10:54:19.862Z,53.6
2018-05-04T10:55:10.778Z,53.6
2018-05-04T10:56:00.497Z,53.5
2018-05-04T10:56:50.968Z,53.5
2018-05-04T10:57:39.715Z,53.5
2018-05-04T10:58:30.458Z,53.7
2018-05-04T10:59:21.086Z,53.9
2018-05-04T11:00:10.591Z,54.1
2018-05-04T11:01:00.392Z,54.3
2018-05-04T11:01:51.285Z,54.4
2018-05-04T11:02:41.076Z,54.4
2018-05-04T11:03:31.166Z,54.5
2018-05-04T11:04:21.491Z,54.6
2018-05-04T11:05:11.312Z,54.7
2018-05-04T11:06:01.366Z,54.8
2018-05-04T11:06:51.708Z,54.9
2018-05-04T11:07:41.205Z,54.9
2018-05-04T11:08:31.264Z,55
2018-05-04T11:09:21.354Z,55
2018-05-04T11:10:11.654Z,54.9
2018-05-04T11:11:02.214Z,55
2018-05-04T11:11:51.320Z,55
2018-05-04T11:12:40.546Z,55
2018-05-04T11:13:31.907Z,54.9
2018-05-04T11:14:22.289Z,54.9
2018-05-04T11:15:12.326Z,54.9
2018-05-04T11:16:02.411Z,54.9
2018-05-04T11:16:52.455Z,54.9
2018-05-04T11:17:42.276Z,54.9
2018-05-04T11:18:32.050Z,55
2018-05-04T11:19:23.024Z,55
2018-05-04T11:20:11.866Z,55.1
2018-05-04T11:21:02.790Z,55.1
2018-05-04T11:21:52.595Z,55.2
2018-05-04T11:22:42.353Z,55.2
2018-05-04T11:23:32.975Z,55.2
2018-05-04T11:24:23.062Z,55
2018-05-04T11:25:13.123Z,54.9
2018-05-04T11:26:03.174Z,54.8
2018-05-04T11:26:53.004Z,54.7
2018-05-04T11:27:43.022Z,54.6
2018-05-04T11:28:33.163Z,54.6
2018-05-04T11:29:23.473Z,54.5
2018-05-04T11:30:12.965Z,54.4
2018-05-04T11:31:03.529Z,54.4
2018-05-04T11:31:53.157Z,54.3
2018-05-04T11:32:43.726Z,54.3
2018-05-04T11:33:33.333Z,54.2
2018-05-04T11:34:23.861Z,54.1
2018-05-04T11:35:13.372Z,54.1
2018-05-04T11:36:03.992Z,54.2
2018-05-04T11:36:53.793Z,54.2
2018-05-04T11:37:43.557Z,54.3
2018-05-04T11:38:34.224Z,54.3
2018-05-04T11:39:24.269Z,54.4
2018-05-04T11:40:14.043Z,54.4
2018-05-04T11:41:03.549Z,54.6
2018-05-04T11:41:54.186Z,54.6
2018-05-04T11:42:44.576Z,54.6
2018-05-04T11:43:34.301Z,54.6
2018-05-04T11:44:24.351Z,54.7
2018-05-04T11:45:14.507Z,54.8
2018-05-04T11:46:04.529Z,54.8
2018-05-04T11:46:54.015Z,54.9
2018-05-04T11:47:44.892Z,55.1
2018-05-04T11:48:34.692Z,55.3
2018-05-04T11:49:25.055Z,55.5
2018-05-04T11:50:14.581Z,55.6
2018-05-04T11:51:05.247Z,55.8
2018-05-04T11:51:54.485Z,56
2018-05-04T11:52:44.770Z,56.1
2018-05-04T11:53:35.367Z,56.2
2018-05-04T11:54:25.459Z,56.3
2018-05-04T11:55:16.356Z,56.1
2018-05-04T11:56:04.740Z,55.9
2018-05-04T11:56:55.412Z,55.8
2018-05-04T11:57:45.727Z,55.7
2018-05-04T11:58:35.194Z,55.6
2018-05-04T11:59:25.288Z,55.7
2018-05-04T12:00:15.352Z,55.9
2018-05-04T12:01:05.417Z,56.1
2018-05-04T12:01:56.031Z,56.3
2018-05-04T12:02:46.106Z,56.4
2018-05-04T12:03:35.707Z,56.5
2018-05-04T12:04:26.235Z,56.5
2018-05-04T12:05:16.001Z,56.4
2018-05-04T12:06:05.939Z,56.3
2018-05-04T12:06:55.899Z,56.2
2018-05-04T12:07:44.921Z,56.2
2018-05-04T12:08:35.244Z,56.3
2018-05-04T12:09:26.176Z,56.3
2018-05-04T12:10:16.501Z,56.3
2018-05-04T12:11:05.741Z,56.3
2018-05-04T12:11:55.538Z,56.3
2018-05-04T12:12:45.291Z,56.3
2018-05-04T12:13:35.348Z,56.3
2018-05-04T12:14:26.283Z,56.4
2018-05-04T12:15:16.236Z,56.4
2018-05-04T12:16:06.133Z,56.4
2018-05-04T12:16:56.471Z,56.4
2018-05-04T12:17:46.573Z,56.4
2018-05-04T12:18:36.939Z,56.4
2018-05-04T12:19:26.688Z,56.4
2018-05-04T12:20:17.265Z,56.4
2018-05-04T12:21:07.298Z,56.4
2018-05-04T12:21:56.295Z,56.4
2018-05-04T12:22:47.191Z,56.4
2018-05-04T12:23:37.023Z,56.5
2018-05-04T12:24:26.456Z,56.6
2018-05-04T12:25:17.047Z,56.6
2018-05-04T12:26:07.108Z,56.6
2018-05-04T12:26:57.257Z,56.8
2018-05-04T12:27:46.772Z,56.8
2018-05-04T12:28:37.917Z,56.9
2018-05-04T12:29:28.207Z,56.9
2018-05-04T12:30:17.710Z,57
2018-05-04T12:31:08.108Z,57
2018-05-04T12:31:57.875Z,57.1
2018-05-04T12:32:48.211Z,57.1
2018-05-04T12:33:38.569Z,57.2
2018-05-04T12:34:27.752Z,57.2
2018-05-04T12:35:18.420Z,57.1
2018-05-04T12:36:07.730Z,57.1
2018-05-04T12:36:58.642Z,56.9
2018-05-04T12:37:48.312Z,56.8
2018-05-04T12:38:38.532Z,56.6
2018-05-04T12:39:29.038Z,56.4
2018-05-04T12:40:18.763Z,56.3
2018-05-04T12:41:09.140Z,56.2
2018-05-04T12:41:58.352Z,56.1
2018-05-04T12:42:48.999Z,55.9
2018-05-04T12:43:39.036Z,55.8
2018-05-04T12:44:29.437Z,55.7
2018-05-04T12:45:19.208Z,55.6
2018-05-04T12:46:09.574Z,55.5
2018-05-04T12:46:58.985Z,55.4
2018-05-04T12:47:49.702Z,55.3
2018-05-04T12:48:39.753Z,55.3
2018-05-04T12:49:29.781Z,55.1